createdAt,value
2023-03-02T00:01:22.965Z,8.80
2023-03-02T00:03:49.762Z,9.82
2023-03-02T00:06:16.467Z,10.40
2023-03-02T00:08:43.265Z,9.18
2023-03-02T00:11:10.002Z,8.70
2023-03-02T00:13:37.137Z,9.38
2023-03-02T00:16:04.150Z,8.60
2023-03-02T00:18:31.252Z,10.07
2023-03-02T00:20:57.957Z,10.05
2023-03-02T00:23:24.651Z,11.02
2023-03-02T00:25:51.368Z,10.15
2023-03-02T00:28:17.991Z,9.48
2023-03-02T00:30:44.676Z,10.95
2023-03-02T00:33:11.362Z,10.32
2023-03-02T00:35:39.184Z,9.68
2023-03-02T00:38:07.333Z,12.68
2023-03-02T00:40:35.046Z,11.45
2023-03-02T00:43:01.815Z,12.95
2023-03-02T00:45:28.491Z,12.43
2023-03-02T00:47:55.128Z,13.77
2023-03-02T00:50:21.951Z,15.30
2023-03-02T00:52:48.722Z,20.60
2023-03-02T00:55:15.375Z,25.83
2023-03-02T00:57:42.120Z,16.98
2023-03-02T01:00:09.525Z,19.35
2023-03-02T01:02:39.170Z,15.80
2023-03-02T01:05:06.157Z,19.92
2023-03-02T01:07:32.830Z,11.45
2023-03-02T01:09:59.473Z,12.18
2023-03-02T01:12:26.078Z,12.30
2023-03-02T01:14:52.763Z,12.63
2023-03-02T01:17:19.459Z,12.48
2023-03-02T01:19:46.152Z,10.32
2023-03-02T01:22:12.794Z,10.60
2023-03-02T01:24:39.465Z,16.83
2023-03-02T01:27:06.119Z,12.13
2023-03-02T01:29:32.806Z,9.75
2023-03-02T01:31:59.588Z,11.60
2023-03-02T01:34:26.347Z,11.43
2023-03-02T01:36:53.008Z,13.85
2023-03-02T01:39:22.430Z,12.65
2023-03-02T01:41:50.039Z,14.05
2023-03-02T01:44:43.074Z,20.42
2023-03-02T01:47:21.604Z,22.52
2023-03-02T01:49:57.056Z,11.15
2023-03-02T01:52:24.182Z,15.18
2023-03-02T01:54:51.550Z,13.43
2023-03-02T01:57:23.321Z,7.13
2023-03-02T01:59:51.041Z,8.48
2023-03-02T02:02:17.716Z,5.55
2023-03-02T02:04:45.205Z,11.30
2023-03-02T02:07:11.795Z,10.10
2023-03-02T02:09:41.389Z,11.68
2023-03-02T02:12:19.392Z,15.02
2023-03-02T02:14:46.201Z,13.60
2023-03-02T02:17:13.010Z,16.80
2023-03-02T02:19:55.736Z,14.27
2023-03-02T02:22:38.364Z,12.02
2023-03-02T02:25:10.131Z,7.00
2023-03-02T02:27:36.787Z,6.65
2023-03-02T02:30:04.226Z,5.53
2023-03-02T02:32:32.826Z,5.55
2023-03-02T02:35:11.046Z,5.68
2023-03-02T02:37:51.690Z,7.57
2023-03-02T02:40:55.097Z,6.30
2023-03-02T02:43:22.028Z,4.60
2023-03-02T02:45:49.860Z,4.68
2023-03-02T02:48:18.361Z,6.68
2023-03-02T02:50:45.216Z,7.20
2023-03-02T02:53:14.831Z,7.40
2023-03-02T02:55:41.533Z,6.53
2023-03-02T02:58:34.805Z,6.32
2023-03-02T03:01:01.532Z,5.70
2023-03-02T03:03:34.110Z,6.30
2023-03-02T03:06:06.817Z,6.55
2023-03-02T03:08:45.777Z,7.63
2023-03-02T03:11:19.497Z,6.53
2023-03-02T03:13:46.850Z,8.00
2023-03-02T03:16:14.875Z,9.20
2023-03-02T03:18:45.303Z,7.88
2023-03-02T03:21:11.916Z,8.77
2023-03-02T03:23:38.736Z,8.35
2023-03-02T03:26:06.146Z,5.55
2023-03-02T03:28:32.962Z,5.22
2023-03-02T03:30:59.693Z,5.07
2023-03-02T03:33:26.420Z,5.95
2023-03-02T03:35:53.110Z,6.70
2023-03-02T03:38:19.776Z,6.20
2023-03-02T03:40:46.456Z,7.75
2023-03-02T03:43:15.179Z,8.40
2023-03-02T03:45:41.831Z,7.20
2023-03-02T03:48:08.500Z,7.35
2023-03-02T03:50:35.580Z,6.97
2023-03-02T03:53:03.804Z,6.72
2023-03-02T03:55:31.228Z,8.48
2023-03-02T03:57:58.009Z,24.40
2023-03-02T04:00:24.723Z,22.15
2023-03-02T04:02:51.555Z,15.95
2023-03-02T04:05:18.320Z,12.30
2023-03-02T04:07:45.072Z,9.52
2023-03-02T04:10:12.497Z,8.52
2023-03-02T04:12:39.952Z,8.43
2023-03-02T04:15:07.586Z,9.70
2023-03-02T04:17:34.216Z,9.57
2023-03-02T04:20:00.879Z,8.27
2023-03-02T04:22:27.878Z,8.50
2023-03-02T04:24:54.576Z,8.15
2023-03-02T04:27:21.191Z,9.38
2023-03-02T04:29:48.439Z,8.07
2023-03-02T04:32:15.171Z,8.77
2023-03-02T04:34:41.904Z,10.35
2023-03-02T04:37:08.596Z,9.57
2023-03-02T04:39:35.282Z,9.15
2023-03-02T04:42:01.987Z,8.00
2023-03-02T04:44:28.633Z,7.90
2023-03-02T04:46:55.443Z,7.70
2023-03-02T04:49:22.083Z,6.05
2023-03-02T04:51:49.039Z,7.18
2023-03-02T04:54:20.744Z,6.88
2023-03-02T04:56:51.532Z,7.70
2023-03-02T04:59:19.948Z,8.10
2023-03-02T05:01:47.270Z,9.35
2023-03-02T05:04:14.193Z,9.63
2023-03-02T05:06:41.075Z,10.27
2023-03-02T05:09:07.715Z,10.95
2023-03-02T05:11:34.331Z,10.10
2023-03-02T05:14:02.575Z,9.20
2023-03-02T05:16:30.275Z,10.32
2023-03-02T05:18:57.013Z,10.35
2023-03-02T05:21:24.041Z,10.57
2023-03-02T05:23:50.688Z,9.43
2023-03-02T05:26:17.379Z,10.15
2023-03-02T05:28:44.095Z,9.80
2023-03-02T05:31:19.590Z,11.55
2023-03-02T05:33:46.387Z,16.20
2023-03-02T05:36:12.990Z,14.05
2023-03-02T05:38:39.643Z,13.18
2023-03-02T05:41:06.386Z,13.85
2023-03-02T05:43:33.180Z,14.68
2023-03-02T05:46:00.645Z,16.42
2023-03-02T05:48:28.332Z,16.92
2023-03-02T05:50:55.019Z,17.33
2023-03-02T05:53:21.713Z,16.27
2023-03-02T05:55:48.985Z,14.45
2023-03-02T05:58:17.222Z,13.18
2023-03-02T06:00:44.661Z,16.20
2023-03-02T06:03:11.362Z,14.57
2023-03-02T06:05:38.064Z,15.15
2023-03-02T06:08:05.026Z,15.60
2023-03-02T06:10:32.032Z,15.13
2023-03-02T06:12:58.729Z,16.10
2023-03-02T06:15:25.628Z,14.40
2023-03-02T06:17:52.330Z,14.70
2023-03-02T06:20:19.079Z,14.77
2023-03-02T06:22:46.708Z,14.68
2023-03-02T06:25:16.531Z,14.77
2023-03-02T06:27:43.199Z,12.82
2023-03-02T06:30:11.835Z,12.98
2023-03-02T06:32:38.672Z,14.85
2023-03-02T06:35:05.923Z,14.40
2023-03-02T06:37:32.870Z,15.35
2023-03-02T06:39:59.852Z,15.25
2023-03-02T06:42:26.930Z,16.90
2023-03-02T06:44:55.146Z,18.65
2023-03-02T06:47:22.485Z,17.38
2023-03-02T06:49:49.344Z,16.33
2023-03-02T06:52:16.292Z,18.38
2023-03-02T06:54:43.008Z,18.88
2023-03-02T06:57:10.704Z,20.17
2023-03-02T06:59:37.460Z,17.00
2023-03-02T07:02:04.104Z,13.82
2023-03-02T07:04:30.782Z,16.40
2023-03-02T07:06:57.433Z,16.58
2023-03-02T07:09:24.187Z,14.68
2023-03-02T07:11:50.909Z,15.27
2023-03-02T07:14:17.583Z,15.00
2023-03-02T07:16:44.278Z,14.43
2023-03-02T07:19:14.142Z,13.23
2023-03-02T07:21:41.018Z,14.00
2023-03-02T07:24:07.739Z,15.15
2023-03-02T07:26:34.377Z,12.38
2023-03-02T07:29:01.143Z,12.73
2023-03-02T07:31:27.927Z,12.93
2023-03-02T07:33:54.570Z,11.35
2023-03-02T07:36:21.287Z,11.38
2023-03-02T07:38:48.669Z,12.15
2023-03-02T07:41:16.903Z,8.95
2023-03-02T07:43:43.664Z,9.32
2023-03-02T07:46:10.373Z,11.18
2023-03-02T07:48:37.078Z,10.93
2023-03-02T07:51:04.647Z,12.35
2023-03-02T07:53:31.497Z,13.13
2023-03-02T07:55:58.169Z,13.27
2023-03-02T07:58:24.833Z,8.77
2023-03-02T08:00:51.523Z,7.35
2023-03-02T08:03:18.147Z,7.28
2023-03-02T08:05:44.909Z,6.47
2023-03-02T08:08:11.540Z,8.10
2023-03-02T08:10:38.433Z,7.88
2023-03-02T08:13:05.271Z,6.07
2023-03-02T08:15:31.893Z,7.22
2023-03-02T08:17:58.537Z,9.32
2023-03-02T08:20:25.336Z,10.05
2023-03-02T08:22:52.026Z,7.93
2023-03-02T08:25:18.740Z,9.43
2023-03-02T08:27:46.156Z,73.28
2023-03-02T08:30:13.026Z,21.40
2023-03-02T08:32:39.870Z,10.00
2023-03-02T08:35:07.028Z,7.70
2023-03-02T08:37:34.125Z,10.30
2023-03-02T08:40:00.775Z,8.60
2023-03-02T08:42:27.412Z,9.27
2023-03-02T08:44:54.062Z,9.43
2023-03-02T08:47:20.712Z,8.57
2023-03-02T08:49:48.266Z,9.43
2023-03-02T08:52:15.491Z,9.02
2023-03-02T08:54:42.306Z,10.48
2023-03-02T08:57:11.561Z,10.05
2023-03-02T08:59:38.271Z,8.45
2023-03-02T09:02:04.937Z,8.65
2023-03-02T09:04:31.746Z,8.60
2023-03-02T09:06:58.433Z,7.55
2023-03-02T09:09:25.056Z,10.40
2023-03-02T09:11:51.754Z,7.95
2023-03-02T09:14:18.428Z,8.00
2023-03-02T09:16:45.644Z,8.85
2023-03-02T09:19:13.098Z,9.70
2023-03-02T09:21:39.873Z,8.68
2023-03-02T09:24:06.716Z,7.50
2023-03-02T09:26:34.064Z,8.73
2023-03-02T09:29:00.903Z,10.55
2023-03-02T09:31:30.097Z,9.25
2023-03-02T09:33:57.229Z,9.70
2023-03-02T09:36:24.796Z,9.85
2023-03-02T09:38:51.606Z,9.85
2023-03-02T09:41:21.287Z,10.25
2023-03-02T09:44:06.260Z,9.85
2023-03-02T09:46:43.957Z,9.77
2023-03-02T09:49:25.995Z,11.68
2023-03-02T09:52:13.988Z,10.25
2023-03-02T09:54:40.824Z,12.00
2023-03-02T09:57:28.373Z,15.95
2023-03-02T10:00:09.567Z,16.48
2023-03-02T10:03:05.116Z,14.73
2023-03-02T10:05:41.784Z,13.48
2023-03-02T10:08:20.435Z,11.65
2023-03-02T10:11:08.185Z,11.10
2023-03-02T10:13:42.417Z,10.45
2023-03-02T10:16:33.235Z,11.32
2023-03-02T10:19:41.711Z,10.32
2023-03-02T10:22:18.654Z,11.73
2023-03-02T10:24:57.857Z,11.55
2023-03-02T10:27:26.974Z,11.18
2023-03-02T10:30:28.904Z,12.25
2023-03-02T10:32:56.130Z,12.40
2023-03-02T10:35:24.422Z,12.93
2023-03-02T10:37:52.114Z,11.10
2023-03-02T10:40:48.681Z,9.32
2023-03-02T10:43:31.828Z,11.98
2023-03-02T10:46:03.333Z,11.15
2023-03-02T10:48:30.036Z,9.48
2023-03-02T10:50:58.309Z,10.60
2023-03-02T10:53:25.122Z,10.13
2023-03-02T10:55:52.871Z,10.68
2023-03-02T10:58:25.908Z,11.60
2023-03-02T11:01:05.943Z,9.32
2023-03-02T11:03:32.930Z,9.45
2023-03-02T11:06:11.182Z,11.45
2023-03-02T11:08:37.839Z,10.73
2023-03-02T11:11:04.794Z,10.75
2023-03-02T11:13:33.602Z,11.45
2023-03-02T11:16:04.389Z,10.27
2023-03-02T11:18:51.262Z,9.88
2023-03-02T11:21:22.609Z,12.10
2023-03-02T11:24:10.582Z,11.65
2023-03-02T11:26:54.895Z,10.75
2023-03-02T11:29:49.412Z,12.88
2023-03-02T11:32:27.515Z,10.80
2023-03-02T11:35:00.585Z,10.65
2023-03-02T11:37:35.045Z,9.70
2023-03-02T11:40:29.850Z,10.35
2023-03-02T11:42:57.469Z,8.30
2023-03-02T11:45:30.039Z,11.85
2023-03-02T11:48:39.711Z,12.93
2023-03-02T11:51:27.675Z,10.23
2023-03-02T11:54:05.354Z,11.13
2023-03-02T11:56:35.160Z,9.50
2023-03-02T11:59:07.196Z,10.93
2023-03-02T12:01:34.541Z,11.13
2023-03-02T12:04:10.279Z,11.70
2023-03-02T12:06:39.487Z,10.20
2023-03-02T12:09:10.959Z,10.45
2023-03-02T12:11:41.415Z,10.63
2023-03-02T12:14:29.555Z,10.20
2023-03-02T12:17:19.725Z,9.32
2023-03-02T12:19:46.456Z,8.93
2023-03-02T12:22:14.695Z,10.55
2023-03-02T12:24:43.523Z,9.02
2023-03-02T12:27:13.186Z,11.25
2023-03-02T12:29:49.375Z,8.10
2023-03-02T12:32:18.834Z,10.18
2023-03-02T12:34:51.795Z,9.68
2023-03-02T12:37:19.742Z,9.73
2023-03-02T12:40:23.465Z,9.82
2023-03-02T12:42:54.179Z,8.40
2023-03-02T13:03:32.280Z,8.30
2023-03-02T13:06:12.068Z,9.77
2023-03-02T13:08:38.757Z,10.02
2023-03-02T13:11:05.564Z,8.73
2023-03-02T13:13:42.111Z,15.98
2023-03-02T13:16:28.301Z,6.55
2023-03-02T13:18:57.113Z,8.73
2023-03-02T13:21:38.332Z,7.57
2023-03-02T13:26:58.699Z,7.97
2023-03-02T13:29:28.434Z,6.35
2023-03-02T13:31:55.288Z,7.28
2023-03-02T13:34:22.617Z,7.82
2023-03-02T13:36:49.320Z,7.72
2023-03-02T13:39:23.241Z,7.20
2023-03-02T13:41:57.175Z,7.90
2023-03-02T13:44:30.458Z,8.32
2023-03-02T13:46:57.310Z,7.38
2023-03-02T13:49:28.310Z,8.60
2023-03-02T13:52:13.774Z,8.77
2023-03-02T13:54:41.300Z,9.77
2023-03-02T13:57:14.293Z,10.07
2023-03-02T13:59:42.131Z,11.40
2023-03-02T14:02:29.358Z,11.48
2023-03-02T14:04:56.677Z,11.00
2023-03-02T14:07:23.403Z,9.15
2023-03-02T14:09:50.169Z,9.68
2023-03-02T14:12:30.426Z,10.05
2023-03-02T14:14:58.277Z,8.77
2023-03-02T14:17:25.178Z,7.00
2023-03-02T14:19:55.345Z,8.15
2023-03-02T14:22:23.269Z,10.07
2023-03-02T14:24:49.989Z,13.25
2023-03-02T14:27:16.806Z,9.60
2023-03-02T14:29:44.110Z,8.18
2023-03-02T14:32:11.993Z,10.00
2023-03-02T14:34:38.893Z,11.00
2023-03-02T14:37:25.382Z,12.63
2023-03-02T14:39:54.276Z,10.68
2023-03-02T14:42:22.115Z,11.27
2023-03-02T14:44:49.886Z,10.77
2023-03-02T14:47:17.562Z,10.50
2023-03-02T14:49:44.244Z,13.02
2023-03-02T14:52:23.628Z,11.25
2023-03-02T14:54:54.937Z,11.68
2023-03-02T14:57:25.861Z,9.43
2023-03-02T14:59:53.240Z,12.13
2023-03-02T15:02:25.580Z,10.73
2023-03-02T15:04:56.156Z,11.55
2023-03-02T15:07:23.321Z,11.65
2023-03-02T15:09:50.020Z,12.18
2023-03-02T15:12:16.794Z,12.80
2023-03-02T15:14:43.418Z,13.70
2023-03-02T15:17:10.245Z,12.88
2023-03-02T15:19:36.909Z,14.23
2023-03-02T15:22:04.286Z,13.00
2023-03-02T15:24:33.163Z,19.35
2023-03-02T15:27:00.301Z,11.63
2023-03-02T15:29:26.914Z,11.43
2023-03-02T15:31:53.785Z,12.05
2023-03-02T15:34:20.603Z,11.00
2023-03-02T15:36:47.239Z,13.05
2023-03-02T15:39:16.443Z,13.50
2023-03-02T15:41:43.123Z,14.43
2023-03-02T15:44:21.516Z,16.90
2023-03-02T15:46:53.344Z,15.65
2023-03-02T15:49:23.020Z,15.27
2023-03-02T15:51:54.501Z,21.73
2023-03-02T15:54:21.691Z,19.02
2023-03-02T15:56:53.307Z,18.38
2023-03-02T15:59:27.628Z,21.17
2023-03-02T16:01:54.550Z,17.10
2023-03-02T16:04:21.169Z,18.13
2023-03-02T16:06:47.842Z,14.65
2023-03-02T16:09:14.676Z,17.33
2023-03-02T16:11:41.437Z,25.80
2023-03-02T16:14:08.162Z,19.73
2023-03-02T16:16:34.909Z,26.70
2023-03-02T16:19:01.744Z,20.25
2023-03-02T16:21:31.444Z,26.48
2023-03-02T16:24:04.599Z,22.85
2023-03-02T16:26:35.589Z,24.27
2023-03-02T16:29:02.436Z,19.33
2023-03-02T16:31:32.311Z,26.30
2023-03-02T16:33:59.158Z,23.98
2023-03-02T16:36:26.684Z,18.85
2023-03-02T16:38:53.390Z,23.83
2023-03-02T16:41:21.254Z,25.08
2023-03-02T16:43:48.754Z,23.65
2023-03-02T16:46:15.731Z,23.40
2023-03-02T16:48:42.686Z,26.95
2023-03-02T16:51:09.890Z,27.10
2023-03-02T16:53:36.615Z,21.73
2023-03-02T16:56:03.436Z,26.33
2023-03-02T16:58:30.088Z,28.13
2023-03-02T17:00:56.989Z,33.78
2023-03-02T17:03:23.692Z,27.27
2023-03-02T17:05:50.409Z,28.83
2023-03-02T17:08:17.127Z,24.00
2023-03-02T17:10:44.132Z,27.45
2023-03-02T17:13:12.223Z,27.77
2023-03-02T17:15:38.997Z,31.67
2023-03-02T17:18:05.720Z,25.83
2023-03-02T17:20:32.394Z,23.98
2023-03-02T17:22:59.111Z,23.75
2023-03-02T17:25:26.023Z,22.02
2023-03-02T17:27:52.704Z,21.73
2023-03-02T17:30:19.481Z,22.23
2023-03-02T17:32:46.116Z,25.55
2023-03-02T17:35:13.007Z,23.70
2023-03-02T17:37:40.050Z,22.35
2023-03-02T17:40:07.535Z,24.42
2023-03-02T17:42:34.391Z,26.70
2023-03-02T17:45:01.068Z,28.52
2023-03-02T17:47:27.750Z,35.65
2023-03-02T17:49:56.232Z,28.33
2023-03-02T17:52:22.923Z,27.17
2023-03-02T17:54:49.948Z,22.63
2023-03-02T17:57:21.999Z,23.70
2023-03-02T17:59:51.777Z,23.15
2023-03-02T18:02:18.999Z,22.25
2023-03-02T18:04:45.735Z,26.67
2023-03-02T18:07:12.892Z,27.92
2023-03-02T18:09:39.611Z,26.77
2023-03-02T18:12:07.564Z,32.33
2023-03-02T18:14:34.633Z,42.55
2023-03-02T18:17:01.998Z,33.00
2023-03-02T18:19:28.732Z,29.20
2023-03-02T18:21:55.456Z,37.67
2023-03-02T18:24:22.168Z,35.03
2023-03-02T18:26:48.828Z,33.80
2023-03-02T18:29:15.732Z,28.80
2023-03-02T18:31:42.453Z,31.15
2023-03-02T18:34:09.087Z,25.77
2023-03-02T18:36:35.718Z,28.35
2023-03-02T18:39:03.998Z,23.88
2023-03-02T18:41:32.640Z,23.80
2023-03-02T18:44:01.362Z,23.60
2023-03-02T18:46:28.873Z,24.38
2023-03-02T18:48:55.652Z,26.02
2023-03-02T18:51:23.119Z,23.23
2023-03-02T18:53:49.950Z,23.23
2023-03-02T18:56:16.749Z,18.23
2023-03-02T18:58:43.575Z,15.68
2023-03-02T19:01:10.349Z,19.50
2023-03-02T19:03:38.696Z,17.85
2023-03-02T19:06:07.316Z,20.55
2023-03-02T19:08:35.513Z,16.50
2023-03-02T19:11:02.219Z,16.35
2023-03-02T19:13:28.943Z,14.05
2023-03-02T19:15:55.623Z,13.60
2023-03-02T19:18:23.128Z,18.73
2023-03-02T19:20:50.471Z,18.05
2023-03-02T19:23:17.222Z,17.02
2023-03-02T19:25:44.088Z,18.63
2023-03-02T19:28:10.823Z,26.52
2023-03-02T19:30:37.599Z,21.23
2023-03-02T19:33:06.577Z,21.27
2023-03-02T19:38:00.006Z,21.83
2023-03-02T19:40:29.211Z,27.90
2023-03-02T19:42:56.052Z,25.33
2023-03-02T19:45:27.386Z,29.30
2023-03-02T19:47:56.481Z,27.98
2023-03-02T19:50:24.268Z,28.13
2023-03-02T19:52:52.488Z,27.45
2023-03-02T19:55:20.126Z,27.00
2023-03-02T19:57:51.266Z,28.83
2023-03-02T20:00:19.334Z,35.50
2023-03-02T20:02:47.340Z,31.25
2023-03-02T20:05:14.210Z,34.53
2023-03-02T20:07:41.821Z,30.67
2023-03-02T20:10:09.572Z,34.28
2023-03-02T20:12:36.957Z,27.42
2023-03-02T20:15:04.794Z,25.60
2023-03-02T20:17:31.424Z,22.67
2023-03-02T20:19:58.619Z,23.92
2023-03-02T20:22:26.033Z,21.55
2023-03-02T20:24:52.737Z,24.13
2023-03-02T20:27:20.718Z,21.58
2023-03-02T20:29:47.440Z,25.88
2023-03-02T20:32:14.151Z,33.40
2023-03-02T20:34:41.098Z,26.88
2023-03-02T20:37:07.927Z,29.90
2023-03-02T20:39:36.588Z,27.77
2023-03-02T20:42:04.128Z,30.35
2023-03-02T20:44:31.159Z,28.63
2023-03-02T20:47:00.007Z,23.05
2023-03-02T20:49:27.237Z,22.73
2023-03-02T20:51:54.859Z,17.48
2023-03-02T20:54:30.127Z,20.27
2023-03-02T20:59:23.910Z,19.90
2023-03-02T21:01:50.811Z,22.42
2023-03-02T21:04:17.600Z,15.60
2023-03-02T21:06:44.630Z,19.52
2023-03-02T21:09:11.392Z,17.77
2023-03-02T21:11:38.375Z,20.05
2023-03-02T21:14:05.297Z,18.73
2023-03-02T21:16:36.068Z,20.00
2023-03-02T21:19:08.738Z,20.45
2023-03-02T21:21:41.658Z,20.90
2023-03-02T21:24:12.983Z,25.73
2023-03-02T21:26:41.614Z,20.88
2023-03-02T21:29:09.512Z,22.77
2023-03-02T21:31:36.282Z,24.27
2023-03-02T21:34:03.135Z,29.27
2023-03-02T21:36:30.228Z,29.55
2023-03-02T21:38:56.833Z,21.42
2023-03-02T21:41:24.661Z,20.75
2023-03-02T21:43:51.389Z,23.90
2023-03-02T21:46:20.722Z,16.65
2023-03-02T21:48:47.826Z,18.10
2023-03-02T21:51:14.772Z,18.95
2023-03-02T21:53:41.818Z,16.27
2023-03-02T21:56:08.664Z,18.77
2023-03-02T21:58:35.526Z,19.75
2023-03-02T22:01:02.280Z,18.25
2023-03-02T22:03:29.037Z,20.55
2023-03-02T22:05:55.840Z,18.60
2023-03-02T22:08:22.557Z,22.27
2023-03-02T22:10:50.401Z,22.90
2023-03-02T22:13:26.481Z,21.17
2023-03-02T22:16:32.352Z,21.02
2023-03-02T22:21:37.288Z,19.20
2023-03-02T22:24:10.537Z,24.55
2023-03-02T22:26:42.141Z,25.48
2023-03-02T22:29:48.299Z,20.05
2023-03-02T22:32:30.658Z,23.15
2023-03-02T22:34:58.853Z,16.75
2023-03-02T22:37:34.834Z,20.08
2023-03-02T22:40:02.644Z,20.65
2023-03-02T22:42:30.122Z,18.90
2023-03-02T22:45:14.668Z,16.35
2023-03-02T22:47:42.205Z,15.77
2023-03-02T22:50:23.752Z,15.30
2023-03-02T22:52:50.587Z,16.25
2023-03-02T22:55:40.112Z,13.73
2023-03-02T22:58:27.990Z,15.32
2023-03-02T23:00:54.823Z,18.20
2023-03-02T23:03:40.986Z,26.27
2023-03-02T23:06:25.225Z,13.70
2023-03-02T23:08:59.711Z,16.80
2023-03-02T23:11:26.856Z,20.08
2023-03-02T23:13:53.692Z,17.85
2023-03-02T23:16:25.246Z,18.65
2023-03-02T23:18:53.915Z,16.90
2023-03-02T23:21:23.314Z,18.13
2023-03-02T23:23:50.472Z,14.27
2023-03-02T23:26:19.297Z,15.02
2023-03-02T23:28:47.926Z,20.27
2023-03-02T23:31:14.971Z,24.27
2023-03-02T23:33:42.218Z,19.50
2023-03-02T23:36:09.024Z,19.10
2023-03-02T23:38:35.685Z,23.35
2023-03-02T23:41:02.366Z,18.67
2023-03-02T23:43:29.057Z,21.83
2023-03-02T23:45:56.283Z,16.08
2023-03-02T23:48:23.899Z,14.75
2023-03-02T23:50:50.635Z,15.50
2023-03-02T23:53:17.588Z,12.00
2023-03-02T23:55:47.292Z,15.20
2023-03-02T23:58:13.996Z,18.27
